sensor_id;sensor_type;location;lat;lon;timestamp;pressure;altitude;pressure_sealevel;temperature;humidity
34241;BME280;20503;50.200;19.508;2023-11-19T00:00:29;101683.92;;;2.73;62.19
34241;BME280;20503;50.200;19.508;2023-11-19T00:01:37;101678.96;;;2.87;61.79
34241;BME280;20503;50.200;19.508;2023-11-19T00:02:42;101682.31;;;3.16;61.29
34241;BME280;20503;50.200;19.508;2023-11-19T00:03:44;101685.81;;;3.18;60.75
34241;BME280;20503;50.200;19.508;2023-11-19T00:04:47;101684.11;;;3.15;60.65
34241;BME280;20503;50.200;19.508;2023-11-19T00:05:52;101677.48;;;3.26;60.54
34241;BME280;20503;50.200;19.508;2023-11-19T00:06:56;101682.24;;;3.63;59.54
34241;BME280;20503;50.200;19.508;2023-11-19T00:08:05;101673.02;;;3.92;58.91
34241;BME280;20503;50.200;19.508;2023-11-19T00:09:09;101671.64;;;4.04;58.09
34241;BME280;20503;50.200;19.508;2023-11-19T00:10:13;101680.33;;;4.09;58.15
34241;BME280;20503;50.200;19.508;2023-11-19T00:11:35;101678.84;;;4.02;58.25
34241;BME280;20503;50.200;19.508;2023-11-19T00:12:40;101672.27;;;4.10;57.85
34241;BME280;20503;50.200;19.508;2023-11-19T00:13:44;101678.87;;;4.22;57.76
34241;BME280;20503;50.200;19.508;2023-11-19T00:14:57;101693.45;;;4.15;57.85
34241;BME280;20503;50.200;19.508;2023-11-19T00:16:02;101683.12;;;4.06;58.26
34241;BME280;20503;50.200;19.508;2023-11-19T00:17:07;101687.08;;;3.53;59.71
34241;BME280;20503;50.200;19.508;2023-11-19T00:18:09;101681.99;;;3.47;60.31
34241;BME280;20503;50.200;19.508;2023-11-19T00:19:13;101678.87;;;3.58;60.17
34241;BME280;20503;50.200;19.508;2023-11-19T00:20:19;101672.55;;;3.82;59.99
34241;BME280;20503;50.200;19.508;2023-11-19T00:21:22;101668.63;;;3.91;59.15
34241;BME280;20503;50.200;19.508;2023-11-19T00:22:49;101668.00;;;3.84;59.38
34241;BME280;20503;50.200;19.508;2023-11-19T00:23:57;101668.15;;;4.02;59.31
34241;BME280;20503;50.200;19.508;2023-11-19T00:25:00;101657.83;;;4.14;58.85
34241;BME280;20503;50.200;19.508;2023-11-19T00:26:05;101654.53;;;4.08;58.32
34241;BME280;20503;50.200;19.508;2023-11-19T00:27:31;101662.41;;;3.90;59.12
34241;BME280;20503;50.200;19.508;2023-11-19T00:28:35;101656.63;;;3.79;59.61
34241;BME280;20503;50.200;19.508;2023-11-19T00:29:40;101654.98;;;3.97;58.96
34241;BME280;20503;50.200;19.508;2023-11-19T00:30:44;101654.35;;;3.70;59.65
34241;BME280;20503;50.200;19.508;2023-11-19T00:31:46;101657.27;;;3.42;60.90
34241;BME280;20503;50.200;19.508;2023-11-19T00:32:49;101652.22;;;3.56;60.33
34241;BME280;20503;50.200;19.508;2023-11-19T00:33:53;101645.03;;;3.58;60.83
34241;BME280;20503;50.200;19.508;2023-11-19T00:34:56;101644.33;;;3.75;60.02
34241;BME280;20503;50.200;19.508;2023-11-19T00:35:58;101639.65;;;3.80;60.17
34241;BME280;20503;50.200;19.508;2023-11-19T00:37:01;101642.79;;;3.90;60.06
34241;BME280;20503;50.200;19.508;2023-11-19T00:38:06;101637.34;;;4.13;59.47
34241;BME280;20503;50.200;19.508;2023-11-19T00:39:08;101636.88;;;4.24;59.38
34241;BME280;20503;50.200;19.508;2023-11-19T00:40:12;101629.11;;;3.98;60.16
34241;BME280;20503;50.200;19.508;2023-11-19T00:41:17;101619.96;;;3.61;61.00
34241;BME280;20503;50.200;19.508;2023-11-19T00:42:21;101630.29;;;3.70;60.53
34241;BME280;20503;50.200;19.508;2023-11-19T00:43:25;101630.67;;;3.39;61.65
34241;BME280;20503;50.200;19.508;2023-11-19T00:44:30;101637.66;;;2.98;63.14
34241;BME280;20503;50.200;19.508;2023-11-19T00:45:32;101641.98;;;3.00;62.42
34241;BME280;20503;50.200;19.508;2023-11-19T00:46:34;101641.48;;;2.90;62.94
34241;BME280;20503;50.200;19.508;2023-11-19T00:47:38;101646.05;;;2.87;63.02
34241;BME280;20503;50.200;19.508;2023-11-19T00:48:41;101637.33;;;3.05;62.65
34241;BME280;20503;50.200;19.508;2023-11-19T00:49:43;101634.70;;;3.27;61.84
34241;BME280;20503;50.200;19.508;2023-11-19T00:50:46;101630.48;;;3.43;61.30
34241;BME280;20503;50.200;19.508;2023-11-19T00:51:50;101635.67;;;3.25;61.79
34241;BME280;20503;50.200;19.508;2023-11-19T00:52:52;101640.36;;;2.96;62.48
34241;BME280;20503;50.200;19.508;2023-11-19T00:53:54;101625.69;;;2.84;62.85
34241;BME280;20503;50.200;19.508;2023-11-19T00:54:59;101627.17;;;3.15;62.09
34241;BME280;20503;50.200;19.508;2023-11-19T00:56:03;101626.91;;;3.21;62.39
34241;BME280;20503;50.200;19.508;2023-11-19T00:57:07;101628.72;;;3.20;61.95
34241;BME280;20503;50.200;19.508;2023-11-19T00:58:09;101626.57;;;3.30;61.87
34241;BME280;20503;50.200;19.508;2023-11-19T00:59:13;101627.66;;;3.68;61.05
34241;BME280;20503;50.200;19.508;2023-11-19T01:00:16;101624.05;;;3.69;60.96
34241;BME280;20503;50.200;19.508;2023-11-19T01:01:27;101628.67;;;3.44;61.45
34241;BME280;20503;50.200;19.508;2023-11-19T01:02:31;101617.64;;;3.74;60.89
34241;BME280;20503;50.200;19.508;2023-11-19T01:03:33;101618.89;;;3.87;60.40
34241;BME280;20503;50.200;19.508;2023-11-19T01:04:46;101626.05;;;3.86;60.52
34241;BME280;20503;50.200;19.508;2023-11-19T01:05:48;101613.87;;;3.79;60.87
34241;BME280;20503;50.200;19.508;2023-11-19T01:07:12;101608.98;;;3.89;60.44
34241;BME280;20503;50.200;19.508;2023-11-19T01:08:14;101610.76;;;3.68;60.51
34241;BME280;20503;50.200;19.508;2023-11-19T01:09:18;101609.05;;;3.87;60.30
34241;BME280;20503;50.200;19.508;2023-11-19T01:10:22;101616.55;;;4.00;60.50
34241;BME280;20503;50.200;19.508;2023-11-19T01:11:25;101626.18;;;4.24;60.13
34241;BME280;20503;50.200;19.508;2023-11-19T01:12:30;101615.93;;;4.34;59.43
34241;BME280;20503;50.200;19.508;2023-11-19T01:13:33;101612.68;;;4.27;59.28
34241;BME280;20503;50.200;19.508;2023-11-19T01:14:37;101613.43;;;4.10;59.03
34241;BME280;20503;50.200;19.508;2023-11-19T01:15:48;101624.05;;;4.12;59.77
34241;BME280;20503;50.200;19.508;2023-11-19T01:16:51;101608.27;;;4.26;59.46
34241;BME280;20503;50.200;19.508;2023-11-19T01:17:56;101621.28;;;4.34;59.27
34241;BME280;20503;50.200;19.508;2023-11-19T01:19:00;101615.08;;;4.13;59.26
34241;BME280;20503;50.200;19.508;2023-11-19T01:20:07;101620.53;;;3.89;60.75
34241;BME280;20503;50.200;19.508;2023-11-19T01:21:12;101610.67;;;3.91;61.03
34241;BME280;20503;50.200;19.508;2023-11-19T01:22:17;101611.45;;;3.93;60.38
34241;BME280;20503;50.200;19.508;2023-11-19T01:23:21;101612.52;;;3.89;60.57
34241;BME280;20503;50.200;19.508;2023-11-19T01:24:24;101607.33;;;3.86;60.70
34241;BME280;20503;50.200;19.508;2023-11-19T01:25:32;101606.85;;;3.97;60.70
34241;BME280;20503;50.200;19.508;2023-11-19T01:26:36;101607.34;;;4.07;59.63
34241;BME280;20503;50.200;19.508;2023-11-19T01:27:40;101606.19;;;4.12;59.86
34241;BME280;20503;50.200;19.508;2023-11-19T01:28:43;101611.60;;;4.31;59.74
34241;BME280;20503;50.200;19.508;2023-11-19T01:29:47;101593.93;;;4.48;59.46
34241;BME280;20503;50.200;19.508;2023-11-19T01:30:53;101601.01;;;4.49;58.54
34241;BME280;20503;50.200;19.508;2023-11-19T01:31:55;101594.61;;;4.32;58.65
34241;BME280;20503;50.200;19.508;2023-11-19T01:32:57;101607.73;;;4.38;58.69
34241;BME280;20503;50.200;19.508;2023-11-19T01:34:18;101610.13;;;4.24;58.72
34241;BME280;20503;50.200;19.508;2023-11-19T01:35:21;101604.34;;;4.14;59.09
34241;BME280;20503;50.200;19.508;2023-11-19T01:36:26;101603.30;;;4.17;59.71
34241;BME280;20503;50.200;19.508;2023-11-19T01:37:29;101595.89;;;4.24;59.46
34241;BME280;20503;50.200;19.508;2023-11-19T01:38:54;101603.37;;;4.36;59.42
34241;BME280;20503;50.200;19.508;2023-11-19T01:40:03;101603.30;;;4.17;60.24
34241;BME280;20503;50.200;19.508;2023-11-19T01:41:09;101589.73;;;4.21;60.02
34241;BME280;20503;50.200;19.508;2023-11-19T01:42:11;101588.01;;;4.00;59.37
34241;BME280;20503;50.200;19.508;2023-11-19T01:43:39;101598.59;;;3.61;60.92
34241;BME280;20503;50.200;19.508;2023-11-19T01:46:06;101582.95;;;3.94;60.58
34241;BME280;20503;50.200;19.508;2023-11-19T01:47:11;101587.88;;;4.03;60.21
34241;BME280;20503;50.200;19.508;2023-11-19T01:48:17;101576.70;;;3.93;60.41
34241;BME280;20503;50.200;19.508;2023-11-19T01:49:21;101572.42;;;3.89;60.78
34241;BME280;20503;50.200;19.508;2023-11-19T01:50:24;101575.95;;;3.69;60.80
34241;BME280;20503;50.200;19.508;2023-11-19T01:51:29;101576.57;;;3.76;60.63
34241;BME280;20503;50.200;19.508;2023-11-19T01:52:33;101573.89;;;3.76;61.28
34241;BME280;20503;50.200;19.508;2023-11-19T01:53:40;101582.98;;;3.72;61.14
34241;BME280;20503;50.200;19.508;2023-11-19T01:54:43;101586.64;;;3.69;60.61
34241;BME280;20503;50.200;19.508;2023-11-19T01:55:47;101587.99;;;3.80;60.58
34241;BME280;20503;50.200;19.508;2023-11-19T01:57:11;101584.05;;;3.88;60.56
34241;BME280;20503;50.200;19.508;2023-11-19T01:58:13;101576.10;;;3.66;60.40
34241;BME280;20503;50.200;19.508;2023-11-19T01:59:18;101566.70;;;3.99;59.84
34241;BME280;20503;50.200;19.508;2023-11-19T02:00:36;101579.91;;;3.81;60.82
34241;BME280;20503;50.200;19.508;2023-11-19T02:01:41;101568.14;;;4.06;60.26
34241;BME280;20503;50.200;19.508;2023-11-19T02:02:44;101568.87;;;3.89;60.20
34241;BME280;20503;50.200;19.508;2023-11-19T02:03:48;101560.81;;;3.90;59.73
34241;BME280;20503;50.200;19.508;2023-11-19T02:04:53;101563.08;;;4.00;59.83
34241;BME280;20503;50.200;19.508;2023-11-19T02:05:55;101564.06;;;3.97;60.26
34241;BME280;20503;50.200;19.508;2023-11-19T02:06:58;101560.64;;;3.73;60.54
34241;BME280;20503;50.200;19.508;2023-11-19T02:08:01;101561.88;;;3.86;60.12
34241;BME280;20503;50.200;19.508;2023-11-19T02:09:05;101560.27;;;3.82;60.53
34241;BME280;20503;50.200;19.508;2023-11-19T02:10:09;101561.17;;;3.61;59.87
34241;BME280;20503;50.200;19.508;2023-11-19T02:11:18;101544.56;;;3.32;59.96
34241;BME280;20503;50.200;19.508;2023-11-19T02:12:22;101540.91;;;3.35;60.09
34241;BME280;20503;50.200;19.508;2023-11-19T02:13:27;101539.53;;;3.25;60.67
34241;BME280;20503;50.200;19.508;2023-11-19T02:14:30;101540.23;;;3.30;61.11
34241;BME280;20503;50.200;19.508;2023-11-19T02:15:34;101534.14;;;3.04;61.48
34241;BME280;20503;50.200;19.508;2023-11-19T02:16:47;101537.78;;;2.58;62.91
34241;BME280;20503;50.200;19.508;2023-11-19T02:17:55;101541.76;;;2.69;62.62
34241;BME280;20503;50.200;19.508;2023-11-19T02:18:58;101527.44;;;3.16;61.86
34241;BME280;20503;50.200;19.508;2023-11-19T02:20:03;101518.24;;;3.01;61.43
34241;BME280;20503;50.200;19.508;2023-11-19T02:21:12;101520.41;;;3.13;61.06
34241;BME280;20503;50.200;19.508;2023-11-19T02:22:18;101498.62;;;3.24;61.02
34241;BME280;20503;50.200;19.508;2023-11-19T02:23:21;101495.31;;;3.60;60.15
34241;BME280;20503;50.200;19.508;2023-11-19T02:24:27;101496.30;;;3.78;59.87
34241;BME280;20503;50.200;19.508;2023-11-19T02:25:33;101493.99;;;3.70;59.92
34241;BME280;20503;50.200;19.508;2023-11-19T02:26:46;101484.87;;;3.54;60.23
34241;BME280;20503;50.200;19.508;2023-11-19T02:27:53;101490.38;;;3.51;60.25
34241;BME280;20503;50.200;19.508;2023-11-19T02:29:00;101491.77;;;3.80;59.90
34241;BME280;20503;50.200;19.508;2023-11-19T02:30:02;101488.33;;;3.96;59.53
34241;BME280;20503;50.200;19.508;2023-11-19T02:31:09;101479.11;;;4.04;59.55
34241;BME280;20503;50.200;19.508;2023-11-19T02:32:15;101488.07;;;4.03;59.34
34241;BME280;20503;50.200;19.508;2023-11-19T02:33:19;101482.95;;;4.17;59.22
34241;BME280;20503;50.200;19.508;2023-11-19T02:34:32;101476.16;;;4.29;59.01
34241;BME280;20503;50.200;19.508;2023-11-19T02:35:35;101464.66;;;4.08;58.97
34241;BME280;20503;50.200;19.508;2023-11-19T02:36:39;101464.96;;;3.81;58.77
34241;BME280;20503;50.200;19.508;2023-11-19T02:37:42;101462.98;;;3.86;58.85
34241;BME280;20503;50.200;19.508;2023-11-19T02:39:06;101471.98;;;3.23;60.62
34241;BME280;20503;50.200;19.508;2023-11-19T02:40:15;101464.84;;;3.64;60.01
34241;BME280;20503;50.200;19.508;2023-11-19T02:41:19;101466.53;;;3.66;59.73
34241;BME280;20503;50.200;19.508;2023-11-19T02:42:25;101464.93;;;3.62;59.82
34241;BME280;20503;50.200;19.508;2023-11-19T02:43:30;101468.23;;;3.88;59.41
34241;BME280;20503;50.200;19.508;2023-11-19T02:44:34;101469.27;;;4.04;59.09
34241;BME280;20503;50.200;19.508;2023-11-19T02:45:36;101470.05;;;3.87;59.25
34241;BME280;20503;50.200;19.508;2023-11-19T02:46:39;101465.79;;;3.63;59.59
34241;BME280;20503;50.200;19.508;2023-11-19T02:47:44;101457.45;;;3.70;59.75
34241;BME280;20503;50.200;19.508;2023-11-19T02:48:46;101457.23;;;3.75;60.01
34241;BME280;20503;50.200;19.508;2023-11-19T02:49:48;101442.16;;;3.93;59.74
34241;BME280;20503;50.200;19.508;2023-11-19T02:50:51;101436.93;;;3.90;59.74
34241;BME280;20503;50.200;19.508;2023-11-19T02:51:54;101426.63;;;3.82;59.63
34241;BME280;20503;50.200;19.508;2023-11-19T02:52:57;101427.70;;;3.78;60.01
34241;BME280;20503;50.200;19.508;2023-11-19T02:54:00;101427.56;;;3.61;60.42
34241;BME280;20503;50.200;19.508;2023-11-19T02:55:05;101426.59;;;3.23;61.29
34241;BME280;20503;50.200;19.508;2023-11-19T02:56:13;101422.68;;;3.09;62.05
34241;BME280;20503;50.200;19.508;2023-11-19T02:57:31;101418.80;;;2.96;62.47
34241;BME280;20503;50.200;19.508;2023-11-19T02:58:35;101418.45;;;2.83;62.75
34241;BME280;20503;50.200;19.508;2023-11-19T02:59:39;101410.16;;;2.89;62.91
34241;BME280;20503;50.200;19.508;2023-11-19T03:00:44;101411.11;;;2.88;62.97
34241;BME280;20503;50.200;19.508;2023-11-19T03:01:57;101405.52;;;2.94;63.03
34241;BME280;20503;50.200;19.508;2023-11-19T03:03:02;101409.53;;;3.05;62.55
34241;BME280;20503;50.200;19.508;2023-11-19T03:04:16;101407.56;;;3.30;62.40
34241;BME280;20503;50.200;19.508;2023-11-19T03:05:21;101399.59;;;3.49;61.88
34241;BME280;20503;50.200;19.508;2023-11-19T03:06:26;101405.80;;;3.70;61.19
34241;BME280;20503;50.200;19.508;2023-11-19T03:07:31;101399.64;;;3.68;60.95
34241;BME280;20503;50.200;19.508;2023-11-19T03:08:35;101395.86;;;3.12;61.79
34241;BME280;20503;50.200;19.508;2023-11-19T03:09:38;101391.59;;;3.08;62.38
34241;BME280;20503;50.200;19.508;2023-11-19T03:10:44;101384.30;;;3.12;63.10
34241;BME280;20503;50.200;19.508;2023-11-19T03:11:47;101376.38;;;3.31;62.30
34241;BME280;20503;50.200;19.508;2023-11-19T03:12:49;101376.41;;;3.50;61.66
34241;BME280;20503;50.200;19.508;2023-11-19T03:13:54;101381.44;;;3.16;62.44
34241;BME280;20503;50.200;19.508;2023-11-19T03:14:58;101376.29;;;2.91;62.88
34241;BME280;20503;50.200;19.508;2023-11-19T03:16:00;101383.38;;;3.13;62.74
34241;BME280;20503;50.200;19.508;2023-11-19T03:17:05;101387.52;;;3.20;62.27
34241;BME280;20503;50.200;19.508;2023-11-19T03:18:15;101386.77;;;3.37;61.88
34241;BME280;20503;50.200;19.508;2023-11-19T03:19:18;101379.59;;;3.78;61.02
34241;BME280;20503;50.200;19.508;2023-11-19T03:20:21;101385.52;;;4.04;60.89
34241;BME280;20503;50.200;19.508;2023-11-19T03:21:30;101384.13;;;4.14;59.85
34241;BME280;20503;50.200;19.508;2023-11-19T03:22:33;101377.58;;;4.02;59.53
34241;BME280;20503;50.200;19.508;2023-11-19T03:23:38;101378.21;;;3.88;60.48
34241;BME280;20503;50.200;19.508;2023-11-19T03:24:52;101388.52;;;3.77;60.64
34241;BME280;20503;50.200;19.508;2023-11-19T03:25:55;101376.19;;;3.75;61.11
34241;BME280;20503;50.200;19.508;2023-11-19T03:27:00;101374.07;;;3.62;61.65
34241;BME280;20503;50.200;19.508;2023-11-19T03:28:04;101369.89;;;3.76;61.29
34241;BME280;20503;50.200;19.508;2023-11-19T03:29:07;101377.57;;;3.83;60.85
34241;BME280;20503;50.200;19.508;2023-11-19T03:30:11;101371.98;;;3.30;61.99
34241;BME280;20503;50.200;19.508;2023-11-19T03:31:16;101381.11;;;3.24;62.75
34241;BME280;20503;50.200;19.508;2023-11-19T03:32:27;101381.88;;;2.85;63.86
34241;BME280;20503;50.200;19.508;2023-11-19T03:33:31;101374.45;;;3.34;62.77
34241;BME280;20503;50.200;19.508;2023-11-19T03:34:34;101376.09;;;3.37;62.84
34241;BME280;20503;50.200;19.508;2023-11-19T03:35:36;101380.64;;;3.35;63.28
34241;BME280;20503;50.200;19.508;2023-11-19T03:36:39;101365.89;;;3.65;61.95
34241;BME280;20503;50.200;19.508;2023-11-19T03:37:42;101374.80;;;3.85;62.03
34241;BME280;20503;50.200;19.508;2023-11-19T03:38:45;101372.78;;;3.71;61.18
34241;BME280;20503;50.200;19.508;2023-11-19T03:39:48;101358.66;;;3.28;62.52
34241;BME280;20503;50.200;19.508;2023-11-19T03:40:51;101364.96;;;3.27;63.01
34241;BME280;20503;50.200;19.508;2023-11-19T03:41:53;101362.63;;;2.99;63.57
34241;BME280;20503;50.200;19.508;2023-11-19T03:43:22;101363.02;;;2.90;63.99
34241;BME280;20503;50.200;19.508;2023-11-19T03:44:23;101347.05;;;2.88;64.33
34241;BME280;20503;50.200;19.508;2023-11-19T03:45:50;101356.86;;;2.88;64.36
34241;BME280;20503;50.200;19.508;2023-11-19T03:46:54;101348.62;;;3.14;63.68
34241;BME280;20503;50.200;19.508;2023-11-19T03:47:56;101344.04;;;3.37;63.32
34241;BME280;20503;50.200;19.508;2023-11-19T03:49:01;101343.27;;;3.54;62.28
34241;BME280;20503;50.200;19.508;2023-11-19T03:50:09;101348.13;;;3.05;64.05
34241;BME280;20503;50.200;19.508;2023-11-19T03:51:11;101337.78;;;2.97;64.21
34241;BME280;20503;50.200;19.508;2023-11-19T03:52:18;101332.70;;;3.32;63.49
34241;BME280;20503;50.200;19.508;2023-11-19T03:53:20;101333.36;;;3.37;62.59
34241;BME280;20503;50.200;19.508;2023-11-19T03:54:37;101343.19;;;3.16;63.57
34241;BME280;20503;50.200;19.508;2023-11-19T03:55:39;101320.68;;;3.42;63.37
34241;BME280;20503;50.200;19.508;2023-11-19T03:56:42;101319.03;;;3.19;63.79
34241;BME280;20503;50.200;19.508;2023-11-19T03:57:44;101316.25;;;3.41;63.22
34241;BME280;20503;50.200;19.508;2023-11-19T03:58:50;101318.82;;;3.24;63.60
34241;BME280;20503;50.200;19.508;2023-11-19T03:59:53;101312.75;;;3.20;63.97
34241;BME280;20503;50.200;19.508;2023-11-19T04:00:57;101318.91;;;3.41;63.36
34241;BME280;20503;50.200;19.508;2023-11-19T04:02:02;101317.11;;;3.41;63.57
34241;BME280;20503;50.200;19.508;2023-11-19T04:03:05;101323.92;;;3.49;63.42
34241;BME280;20503;50.200;19.508;2023-11-19T04:04:08;101328.40;;;3.48;62.73
34241;BME280;20503;50.200;19.508;2023-11-19T04:05:11;101312.07;;;3.35;63.46
34241;BME280;20503;50.200;19.508;2023-11-19T04:06:35;101329.60;;;3.41;63.11
34241;BME280;20503;50.200;19.508;2023-11-19T04:07:40;101318.45;;;3.52;62.86
34241;BME280;20503;50.200;19.508;2023-11-19T04:08:44;101311.51;;;3.48;62.62
34241;BME280;20503;50.200;19.508;2023-11-19T04:09:47;101308.40;;;3.17;63.34
34241;BME280;20503;50.200;19.508;2023-11-19T04:11:17;101313.09;;;2.71;65.04
34241;BME280;20503;50.200;19.508;2023-11-19T04:12:20;101301.43;;;2.74;64.49
34241;BME280;20503;50.200;19.508;2023-11-19T04:13:23;101297.53;;;2.61;65.00
34241;BME280;20503;50.200;19.508;2023-11-19T04:14:26;101303.92;;;2.57;65.46
34241;BME280;20503;50.200;19.508;2023-11-19T04:15:30;101291.52;;;2.56;65.72
34241;BME280;20503;50.200;19.508;2023-11-19T04:16:33;101292.48;;;2.33;66.57
34241;BME280;20503;50.200;19.508;2023-11-19T04:17:38;101282.24;;;2.44;66.64
34241;BME280;20503;50.200;19.508;2023-11-19T04:18:42;101285.77;;;2.44;66.40
34241;BME280;20503;50.200;19.508;2023-11-19T04:19:44;101285.38;;;2.33;66.84
34241;BME280;20503;50.200;19.508;2023-11-19T04:20:47;101280.85;;;2.56;66.51
34241;BME280;20503;50.200;19.508;2023-11-19T04:21:49;101291.30;;;2.40;66.21
34241;BME280;20503;50.200;19.508;2023-11-19T04:22:53;101280.20;;;2.29;66.98
34241;BME280;20503;50.200;19.508;2023-11-19T04:23:56;101280.29;;;2.27;67.60
34241;BME280;20503;50.200;19.508;2023-11-19T04:24:59;101278.75;;;2.21;67.54
34241;BME280;20503;50.200;19.508;2023-11-19T04:26:05;101274.83;;;2.30;67.35
34241;BME280;20503;50.200;19.508;2023-11-19T04:27:07;101278.83;;;2.40;66.85
34241;BME280;20503;50.200;19.508;2023-11-19T04:28:10;101286.27;;;2.54;66.28
34241;BME280;20503;50.200;19.508;2023-11-19T04:29:16;101285.87;;;1.99;68.07
34241;BME280;20503;50.200;19.508;2023-11-19T04:30:18;101287.91;;;2.57;66.85
34241;BME280;20503;50.200;19.508;2023-11-19T04:31:21;101287.67;;;2.63;66.27
34241;BME280;20503;50.200;19.508;2023-11-19T04:32:24;101297.16;;;2.90;65.17
34241;BME280;20503;50.200;19.508;2023-11-19T04:33:29;101278.04;;;2.38;66.71
34241;BME280;20503;50.200;19.508;2023-11-19T04:34:32;101274.04;;;2.48;66.63
34241;BME280;20503;50.200;19.508;2023-11-19T04:35:34;101261.77;;;2.44;66.22
34241;BME280;20503;50.200;19.508;2023-11-19T04:36:38;101264.19;;;2.51;66.02
34241;BME280;20503;50.200;19.508;2023-11-19T04:37:42;101260.78;;;2.47;66.40
34241;BME280;20503;50.200;19.508;2023-11-19T04:38:45;101253.08;;;2.61;66.17
34241;BME280;20503;50.200;19.508;2023-11-19T04:40:10;101260.57;;;2.92;64.96
34241;BME280;20503;50.200;19.508;2023-11-19T04:41:12;101255.78;;;2.60;66.07
34241;BME280;20503;50.200;19.508;2023-11-19T04:42:37;101259.84;;;2.89;65.23
34241;BME280;20503;50.200;19.508;2023-11-19T04:43:43;101259.59;;;2.75;65.30
34241;BME280;20503;50.200;19.508;2023-11-19T04:44:45;101246.66;;;2.86;65.14
34241;BME280;20503;50.200;19.508;2023-11-19T04:45:48;101244.18;;;3.02;64.87
34241;BME280;20503;50.200;19.508;2023-11-19T04:46:50;101249.56;;;3.00;64.62
34241;BME280;20503;50.200;19.508;2023-11-19T04:48:11;101255.76;;;3.01;64.36
34241;BME280;20503;50.200;19.508;2023-11-19T04:49:14;101244.90;;;2.85;64.48
34241;BME280;20503;50.200;19.508;2023-11-19T04:50:20;101239.66;;;2.63;65.25
34241;BME280;20503;50.200;19.508;2023-11-19T04:51:23;101241.49;;;2.81;65.29
34241;BME280;20503;50.200;19.508;2023-11-19T04:52:27;101238.05;;;2.38;65.85
34241;BME280;20503;50.200;19.508;2023-11-19T04:53:30;101240.73;;;2.16;66.80
34241;BME280;20503;50.200;19.508;2023-11-19T04:54:35;101239.23;;;2.31;66.75
34241;BME280;20503;50.200;19.508;2023-11-19T04:55:36;101242.35;;;2.41;66.34
34241;BME280;20503;50.200;19.508;2023-11-19T04:56:39;101243.30;;;2.40;66.28
34241;BME280;20503;50.200;19.508;2023-11-19T04:57:41;101257.91;;;2.52;66.22
34241;BME280;20503;50.200;19.508;2023-11-19T04:58:45;101249.25;;;2.46;65.88
34241;BME280;20503;50.200;19.508;2023-11-19T04:59:52;101251.91;;;2.46;66.05
34241;BME280;20503;50.200;19.508;2023-11-19T05:00:57;101244.69;;;2.28;66.52
34241;BME280;20503;50.200;19.508;2023-11-19T05:02:11;101258.08;;;2.27;66.64
34241;BME280;20503;50.200;19.508;2023-11-19T05:03:21;101255.43;;;2.27;66.79
34241;BME280;20503;50.200;19.508;2023-11-19T05:04:25;101247.33;;;2.50;66.08
34241;BME280;20503;50.200;19.508;2023-11-19T05:05:30;101245.23;;;2.36;65.67
34241;BME280;20503;50.200;19.508;2023-11-19T05:06:33;101247.53;;;2.45;65.40
34241;BME280;20503;50.200;19.508;2023-11-19T05:07:37;101252.58;;;2.52;65.67
34241;BME280;20503;50.200;19.508;2023-11-19T05:08:42;101243.46;;;2.15;66.97
34241;BME280;20503;50.200;19.508;2023-11-19T05:09:44;101249.49;;;2.40;66.20
34241;BME280;20503;50.200;19.508;2023-11-19T05:10:46;101247.74;;;2.61;65.06
34241;BME280;20503;50.200;19.508;2023-11-19T05:11:50;101250.53;;;2.58;65.16
34241;BME280;20503;50.200;19.508;2023-11-19T05:12:52;101238.68;;;2.23;66.84
34241;BME280;20503;50.200;19.508;2023-11-19T05:13:57;101234.52;;;2.38;65.95
34241;BME280;20503;50.200;19.508;2023-11-19T05:14:59;101234.20;;;2.66;65.22
34241;BME280;20503;50.200;19.508;2023-11-19T05:16:01;101237.64;;;2.47;65.44
34241;BME280;20503;50.200;19.508;2023-11-19T05:17:04;101232.30;;;2.47;65.38
34241;BME280;20503;50.200;19.508;2023-11-19T05:18:18;101234.24;;;2.44;65.91
34241;BME280;20503;50.200;19.508;2023-11-19T05:19:20;101240.41;;;2.85;64.61
34241;BME280;20503;50.200;19.508;2023-11-19T05:20:23;101232.71;;;2.79;64.71
34241;BME280;20503;50.200;19.508;2023-11-19T05:21:29;101230.95;;;2.99;63.58
34241;BME280;20503;50.200;19.508;2023-11-19T05:22:42;101241.69;;;2.97;63.61
34241;BME280;20503;50.200;19.508;2023-11-19T05:23:44;101232.10;;;2.72;64.58
34241;BME280;20503;50.200;19.508;2023-11-19T05:24:50;101230.48;;;2.89;63.94
34241;BME280;20503;50.200;19.508;2023-11-19T05:25:53;101227.25;;;2.82;64.04
34241;BME280;20503;50.200;19.508;2023-11-19T05:26:56;101236.65;;;2.70;64.64
34241;BME280;20503;50.200;19.508;2023-11-19T05:28:00;101239.55;;;2.85;63.87
34241;BME280;20503;50.200;19.508;2023-11-19T05:29:02;101237.70;;;2.87;63.85
34241;BME280;20503;50.200;19.508;2023-11-19T05:30:06;101229.62;;;2.88;63.83
34241;BME280;20503;50.200;19.508;2023-11-19T05:31:09;101232.11;;;2.52;64.67
34241;BME280;20503;50.200;19.508;2023-11-19T05:32:12;101232.84;;;2.56;64.81
34241;BME280;20503;50.200;19.508;2023-11-19T05:33:16;101202.72;;;2.54;64.59
34241;BME280;20503;50.200;19.508;2023-11-19T05:34:18;101226.44;;;2.80;63.69
34241;BME280;20503;50.200;19.508;2023-11-19T05:35:39;101229.18;;;2.79;64.33
34241;BME280;20503;50.200;19.508;2023-11-19T05:36:43;101215.36;;;2.48;65.00
34241;BME280;20503;50.200;19.508;2023-11-19T05:37:45;101210.02;;;2.28;65.78
34241;BME280;20503;50.200;19.508;2023-11-19T05:38:48;101217.36;;;2.23;66.37
34241;BME280;20503;50.200;19.508;2023-11-19T05:39:50;101206.82;;;2.20;66.56
34241;BME280;20503;50.200;19.508;2023-11-19T05:40:53;101200.75;;;2.37;66.07
34241;BME280;20503;50.200;19.508;2023-11-19T05:41:57;101204.26;;;2.17;66.68
34241;BME280;20503;50.200;19.508;2023-11-19T05:43:02;101187.20;;;2.21;66.82
34241;BME280;20503;50.200;19.508;2023-11-19T05:44:05;101197.22;;;2.36;66.27